Time;durP1;ratioP1;P1;durP2;ratioP2;P2;SDS_P1;SDS_P2;PMS_P1;PMS_P2;Temp;Humidity;BMP_temperature;BMP_pressure;BME280_temperature;BME280_humidity;BME280_pressure;Samples;Min_cycle;Max_cycle;Signal;HPM_P1;HPM_P2
2023/09/13 00:01:40;;;;;;;7.10;3.92;;;21.60;99.30;;;;;;5012883;28;20037;-70
2023/09/13 00:04:06;;;;;;;6.47;3.97;;;21.60;99.10;;;;;;5015561;28;20159;-70
2023/09/13 00:06:31;;;;;;;7.47;4.23;;;21.70;99.60;;;;;;5016533;28;20049;-70
2023/09/13 00:08:57;;;;;;;6.57;4.30;;;21.60;99.60;;;;;;5017814;28;20561;-71
2023/09/13 00:11:23;;;;;;;6.60;4.53;;;21.60;99.60;;;;;;5017981;28;20033;-70
2023/09/13 00:13:48;;;;;;;5.72;3.85;;;21.60;99.90;;;;;;5016914;28;20033;-71
2023/09/13 00:16:14;;;;;;;7.80;4.37;;;21.50;99.90;;;;;;5012238;28;20038;-70
2023/09/13 00:18:40;;;;;;;7.45;4.72;;;21.60;99.90;;;;;;5014268;28;20295;-70
2023/09/13 00:21:09;;;;;;;5.33;3.53;;;21.60;99.90;;;;;;5019592;28;20041;-71
2023/09/13 00:23:34;;;;;;;8.13;3.92;;;21.60;99.90;;;;;;5013993;28;20280;-70
2023/09/13 00:26:00;;;;;;;9.47;4.50;;;21.50;99.90;;;;;;5016333;28;20649;-70
2023/09/13 00:28:25;;;;;;;8.20;3.47;;;21.50;99.90;;;;;;5020100;28;20497;-69
2023/09/13 00:30:51;;;;;;;12.25;4.53;;;21.50;99.90;;;;;;5016728;28;20210;-69
2023/09/13 00:33:17;;;;;;;7.73;3.93;;;21.50;99.90;;;;;;5021023;28;20037;-68
2023/09/13 00:35:42;;;;;;;7.47;4.20;;;21.40;99.90;;;;;;5016972;28;20030;-70
2023/09/13 00:38:08;;;;;;;6.10;3.80;;;21.40;99.90;;;;;;5017664;28;20026;-70
2023/09/13 00:40:33;;;;;;;4.33;3.40;;;21.40;99.90;;;;;;5015608;28;20041;-69
2023/09/13 00:42:59;;;;;;;7.80;3.63;;;21.50;99.90;;;;;;5018049;28;20115;-69
2023/09/13 00:45:25;;;;;;;4.40;3.57;;;21.40;99.90;;;;;;5022121;28;20413;-70
2023/09/13 00:47:51;;;;;;;6.05;4.05;;;21.30;99.90;;;;;;5019260;28;20723;-69
2023/09/13 00:50:17;;;;;;;8.23;3.83;;;21.10;99.90;;;;;;5017249;28;20391;-70
2023/09/13 00:52:46;;;;;;;10.50;4.47;;;21.20;99.90;;;;;;5013931;28;20532;-70
2023/09/13 00:55:16;;;;;;;8.68;4.30;;;21.20;99.90;;;;;;5015481;28;20415;-70
2023/09/13 00:57:42;;;;;;;8.73;3.47;;;21.10;99.90;;;;;;5014696;28;20088;-69
2023/09/13 01:00:09;;;;;;;;;;;21.00;99.90;;;;;;5014728;28;20053;-70
2023/09/13 01:02:37;;;;;;;6.67;3.73;;;21.00;99.90;;;;;;5018059;28;19913;-70
2023/09/13 01:05:05;;;;;;;7.72;4.18;;;21.10;99.90;;;;;;5016598;28;20064;-70
2023/09/13 01:07:32;;;;;;;6.82;3.88;;;21.10;99.90;;;;;;5019806;28;20045;-69
2023/09/13 01:09:58;;;;;;;9.55;3.70;;;20.80;99.90;;;;;;5016053;28;20177;-69
2023/09/13 01:12:23;;;;;;;8.75;4.03;;;20.80;99.90;;;;;;5013486;28;20026;-70
2023/09/13 01:14:50;;;;;;;7.63;3.80;;;20.80;99.90;;;;;;5024539;28;20033;-70
2023/09/13 01:17:21;;;;;;;6.13;4.00;;;20.80;99.90;;;;;;5014470;28;20127;-69
2023/09/13 01:20:01;;;;;;;9.05;4.40;;;20.90;99.90;;;;;;5019188;28;20040;-69
2023/09/13 01:23:24;;;;;;;5.80;3.90;;;20.90;99.90;;;;;;5019439;28;20034;-69
2023/09/13 01:25:54;;;;;;;6.13;3.75;;;20.90;99.90;;;;;;4982911;28;20089;-70
2023/09/13 01:28:46;;;;;;;5.35;3.78;;;20.80;99.90;;;;;;4981327;28;20043;-70
2023/09/13 01:31:13;;;;;;;7.88;3.47;;;20.70;99.90;;;;;;4998966;28;20968;-70
2023/09/13 01:33:39;;;;;;;7.10;4.03;;;20.80;99.90;;;;;;5022351;28;20385;-70
2023/09/13 01:36:05;;;;;;;8.17;3.70;;;20.80;99.90;;;;;;5022874;28;20034;-71
2023/09/13 01:38:31;;;;;;;6.30;3.85;;;20.70;99.90;;;;;;5016859;28;20025;-70
2023/09/13 01:41:17;;;;;;;5.18;3.95;;;20.70;99.90;;;;;;5022111;28;20457;-70
2023/09/13 01:43:43;;;;;;;10.55;3.95;;;20.70;99.90;;;;;;5017925;28;20109;-71
2023/09/13 01:46:12;;;;;;;5.00;3.85;;;20.70;99.90;;;;;;5021276;28;20064;-71
2023/09/13 01:48:38;;;;;;;7.03;5.38;;;20.70;99.90;;;;;;5015325;28;20017;-71
2023/09/13 01:51:04;;;;;;;10.95;3.90;;;20.80;99.90;;;;;;5014447;28;20823;-71
2023/09/13 01:53:30;;;;;;;6.53;3.63;;;20.70;99.90;;;;;;5023176;28;20057;-71
2023/09/13 01:55:55;;;;;;;9.80;4.30;;;20.50;99.90;;;;;;5020931;28;20544;-71
2023/09/13 01:58:21;;;;;;;7.50;4.17;;;20.60;99.90;;;;;;5014021;28;20478;-70
2023/09/13 02:00:47;;;;;;;11.43;4.37;;;20.50;99.90;;;;;;5020505;28;20189;-71
2023/09/13 02:03:13;;;;;;;10.50;4.73;;;20.60;99.90;;;;;;5020156;28;20053;-70
2023/09/13 02:05:38;;;;;;;8.27;4.38;;;20.70;99.90;;;;;;5016783;28;20030;-70
2023/09/13 02:08:04;;;;;;;6.13;4.17;;;20.70;99.90;;;;;;5018204;28;20187;-71
2023/09/13 02:10:30;;;;;;;7.43;4.40;;;20.70;99.90;;;;;;5019206;28;20584;-71
2023/09/13 02:12:58;;;;;;;9.13;4.20;;;20.50;99.90;;;;;;5020340;28;20455;-70
2023/09/13 02:15:24;;;;;;;13.65;4.20;;;20.50;99.90;;;;;;5018292;28;20032;-70
2023/09/13 02:17:49;;;;;;;4.97;4.10;;;20.50;99.90;;;;;;5016070;28;20034;-71
2023/09/13 02:20:15;;;;;;;4.10;3.70;;;20.40;99.90;;;;;;5017467;28;20029;-71
2023/09/13 02:22:41;;;;;;;5.27;3.73;;;20.50;99.90;;;;;;5018565;28;20025;-71
2023/09/13 02:25:07;;;;;;;7.30;4.40;;;20.50;99.90;;;;;;5016995;28;20034;-70
2023/09/13 02:27:34;;;;;;;5.45;3.78;;;20.50;99.90;;;;;;5016665;28;20046;-70
2023/09/13 02:30:00;;;;;;;6.00;4.07;;;20.50;99.90;;;;;;5017771;28;20175;-71
2023/09/13 02:32:26;;;;;;;8.48;3.92;;;20.50;99.90;;;;;;5021347;28;20092;-71
2023/09/13 02:34:52;;;;;;;6.72;3.80;;;20.50;99.90;;;;;;5013967;28;20025;-71
2023/09/13 02:37:18;;;;;;;5.55;4.13;;;20.40;99.90;;;;;;5017691;28;20718;-71
2023/09/13 02:39:45;;;;;;;7.73;3.57;;;20.40;99.90;;;;;;5015932;28;20029;-71
2023/09/13 02:42:10;;;;;;;14.27;4.10;;;20.40;99.90;;;;;;5020788;28;20034;-71
2023/09/13 02:44:36;;;;;;;7.33;4.00;;;20.40;99.90;;;;;;5015743;28;20130;-71
2023/09/13 02:47:02;;;;;;;7.77;4.77;;;20.50;99.90;;;;;;5019858;28;20041;-70
2023/09/13 02:49:28;;;;;;;7.35;4.13;;;20.50;99.90;;;;;;5018560;28;20926;-70
2023/09/13 02:51:54;;;;;;;6.17;3.80;;;20.50;99.90;;;;;;5016729;28;20029;-69
2023/09/13 02:54:20;;;;;;;4.88;3.53;;;20.50;99.90;;;;;;5020949;28;20096;-69
2023/09/13 02:56:49;;;;;;;7.60;3.92;;;20.50;99.90;;;;;;5016966;28;20387;-68
2023/09/13 02:59:15;;;;;;;8.93;3.88;;;20.50;99.90;;;;;;5015580;28;20041;-71
2023/09/13 03:01:42;;;;;;;6.03;3.50;;;20.40;99.90;;;;;;5013492;28;20038;-71
2023/09/13 03:04:08;;;;;;;6.28;3.83;;;20.40;99.90;;;;;;5016629;28;20026;-71
2023/09/13 03:06:33;;;;;;;6.85;4.18;;;20.40;99.90;;;;;;5017131;28;20048;-70
2023/09/13 03:08:59;;;;;;;6.60;3.80;;;20.40;99.90;;;;;;5013545;28;20142;-70
2023/09/13 03:11:25;;;;;;;5.13;3.30;;;20.30;99.90;;;;;;5018805;28;20409;-69
2023/09/13 03:13:51;;;;;;;8.03;4.03;;;20.30;99.90;;;;;;5019165;28;20034;-71
2023/09/13 03:16:18;;;;;;;7.80;4.00;;;20.30;99.90;;;;;;5016164;28;20087;-70
2023/09/13 03:18:45;;;;;;;5.53;3.72;;;20.30;99.90;;;;;;5021280;28;20037;-71
2023/09/13 03:21:11;;;;;;;8.23;4.05;;;20.00;99.90;;;;;;5021978;28;20045;-70
2023/09/13 03:23:38;;;;;;;5.45;3.30;;;20.10;99.90;;;;;;5017781;28;20565;-70
2023/09/13 03:26:18;;;;;;;5.45;3.50;;;20.20;99.90;;;;;;5018550;28;20081;-70
2023/09/13 03:28:45;;;;;;;6.55;4.55;;;;;;;;;;5017632;28;20218;-71
2023/09/13 03:31:12;;;;;;;7.40;4.35;;;20.10;99.90;;;;;;5014952;28;20037;-72
2023/09/13 03:33:39;;;;;;;10.00;5.53;;;20.10;99.90;;;;;;5016896;28;20018;-72
2023/09/13 03:36:07;;;;;;;7.15;4.82;;;20.00;99.90;;;;;;5022335;28;20029;-72
2023/09/13 03:38:32;;;;;;;10.95;4.40;;;20.10;99.90;;;;;;5013483;28;20061;-72
2023/09/13 03:40:58;;;;;;;6.80;4.50;;;19.90;99.90;;;;;;5019218;28;20061;-72
2023/09/13 03:43:23;;;;;;;8.17;4.37;;;20.00;99.90;;;;;;5019967;28;20034;-72
2023/09/13 03:45:49;;;;;;;6.93;4.80;;;20.00;99.90;;;;;;5015218;28;20029;-71
2023/09/13 03:48:15;;;;;;;8.97;4.93;;;19.90;99.90;;;;;;5020786;28;20042;-72
2023/09/13 03:50:40;;;;;;;7.57;4.70;;;20.00;99.90;;;;;;5017626;28;20486;-73
2023/09/13 03:53:06;;;;;;;7.37;5.13;;;19.90;99.90;;;;;;5018759;28;20038;-72
2023/09/13 03:55:31;;;;;;;8.27;5.33;;;19.90;99.90;;;;;;5016865;28;20037;-72
2023/09/13 03:57:57;;;;;;;7.50;5.20;;;20.00;99.90;;;;;;5013087;28;20490;-72
2023/09/13 04:00:23;;;;;;;8.23;4.73;;;19.90;99.90;;;;;;5014175;28;20139;-73
2023/09/13 04:02:49;;;;;;;7.85;4.97;;;19.80;99.90;;;;;;5014433;28;20300;-72
2023/09/13 04:05:14;;;;;;;14.82;5.40;;;19.90;99.90;;;;;;5019119;28;20041;-72
2023/09/13 04:07:40;;;;;;;6.13;4.37;;;19.80;99.90;;;;;;5012188;28;20041;-73
2023/09/13 04:10:06;;;;;;;12.77;4.97;;;19.60;99.90;;;;;;5014782;28;20025;-72
2023/09/13 04:12:31;;;;;;;9.60;4.63;;;19.70;99.90;;;;;;5014681;28;20121;-73
2023/09/13 04:14:57;;;;;;;6.17;4.63;;;19.70;99.90;;;;;;5018469;28;20480;-72
2023/09/13 04:17:22;;;;;;;10.07;4.80;;;19.80;99.90;;;;;;5018177;28;20026;-72
2023/09/13 04:19:48;;;;;;;6.90;4.57;;;19.80;99.90;;;;;;5019123;28;20444;-72
2023/09/13 04:22:16;;;;;;;10.00;5.53;;;20.10;99.90;;;;;;5016061;28;20109;-72
2023/09/13 04:24:42;;;;;;;6.47;4.72;;;20.00;99.90;;;;;;5014361;28;20026;-72
2023/09/13 04:27:08;;;;;;;11.40;4.97;;;20.10;99.90;;;;;;5017040;28;20552;-72
2023/09/13 04:29:34;;;;;;;9.53;5.23;;;20.10;99.90;;;;;;5015096;28;20104;-73
2023/09/13 04:31:59;;;;;;;9.50;4.75;;;20.10;99.90;;;;;;5015282;28;20285;-72
2023/09/13 04:34:25;;;;;;;12.27;5.40;;;20.30;99.90;;;;;;5014915;28;20033;-72
2023/09/13 04:36:51;;;;;;;9.75;4.57;;;20.20;99.90;;;;;;5014821;28;20597;-72
2023/09/13 04:39:16;;;;;;;15.87;5.03;;;20.20;99.90;;;;;;5014194;28;20267;-72
2023/09/13 04:41:42;;;;;;;9.77;5.37;;;20.20;99.90;;;;;;5021236;28;20026;-72
2023/09/13 04:44:08;;;;;;;11.07;5.73;;;20.30;99.90;;;;;;5018749;28;20504;-72
2023/09/13 04:46:33;;;;;;;6.63;5.23;;;20.30;99.90;;;;;;5012659;28;20044;-72
2023/09/13 04:48:59;;;;;;;11.50;5.27;;;20.10;99.90;;;;;;5017854;28;20401;-72
2023/09/13 04:51:24;;;;;;;8.97;5.67;;;20.10;99.90;;;;;;5013494;28;20034;-72
2023/09/13 04:53:50;;;;;;;9.00;5.60;;;20.20;99.90;;;;;;5014656;28;20018;-72
2023/09/13 04:56:15;;;;;;;10.27;5.57;;;20.10;99.90;;;;;;5017867;28;20613;-72
2023/09/13 04:58:41;;;;;;;7.93;5.37;;;20.20;99.90;;;;;;5017529;28;20018;-72
2023/09/13 05:01:07;;;;;;;14.85;5.90;;;20.00;99.90;;;;;;5018115;28;20026;-73
2023/09/13 05:03:32;;;;;;;9.70;5.77;;;20.10;99.90;;;;;;5017182;28;20045;-72
2023/09/13 05:05:58;;;;;;;8.10;4.73;;;20.20;99.90;;;;;;5013808;28;20050;-68
2023/09/13 05:08:23;;;;;;;9.60;5.10;;;20.10;99.90;;;;;;5016093;28;20488;-70
2023/09/13 05:10:51;;;;;;;14.47;5.50;;;20.00;99.90;;;;;;5013332;28;20040;-71
2023/09/13 05:13:17;;;;;;;6.30;4.95;;;20.00;99.90;;;;;;5013261;28;20106;-72
2023/09/13 05:15:44;;;;;;;14.67;5.80;;;20.00;99.90;;;;;;5015172;28;20038;-71
2023/09/13 05:18:10;;;;;;;6.93;4.40;;;20.00;99.90;;;;;;5008659;28;20071;-70
2023/09/13 05:20:36;;;;;;;12.52;5.47;;;20.10;99.90;;;;;;5013367;28;20375;-72
2023/09/13 05:23:01;;;;;;;11.20;5.93;;;20.00;99.90;;;;;;5012965;28;20050;-72
2023/09/13 05:25:27;;;;;;;13.20;5.87;;;19.80;99.90;;;;;;5014295;28;20042;-73
2023/09/13 05:27:52;;;;;;;10.40;5.47;;;19.80;99.90;;;;;;5014277;28;20502;-72
2023/09/13 05:30:18;;;;;;;10.30;5.67;;;19.90;99.90;;;;;;5013929;28;20033;-72
2023/09/13 05:32:44;;;;;;;12.97;5.80;;;20.00;99.90;;;;;;5017953;28;20021;-72
2023/09/13 05:35:10;;;;;;;10.80;5.50;;;20.00;99.90;;;;;;5013981;28;20100;-72
2023/09/13 05:37:36;;;;;;;;;;;20.00;99.90;;;;;;5010753;28;20041;-72
2023/09/13 05:40:06;;;;;;;9.10;5.72;;;20.00;99.90;;;;;;5016313;28;19913;-72
2023/09/13 05:42:34;;;;;;;17.13;6.03;;;20.00;99.90;;;;;;5014042;28;20030;-71
2023/09/13 05:45:00;;;;;;;12.20;5.75;;;20.00;99.90;;;;;;5012383;28;20029;-71
2023/09/13 05:47:26;;;;;;;20.08;6.70;;;20.00;99.90;;;;;;5012694;28;20544;-71
2023/09/13 05:49:51;;;;;;;23.37;6.23;;;20.00;99.90;;;;;;5013664;28;20038;-72
2023/09/13 05:52:17;;;;;;;35.37;7.20;;;20.10;99.90;;;;;;5014804;28;20037;-71
2023/09/13 05:54:43;;;;;;;42.63;8.43;;;20.10;99.90;;;;;;5011688;28;20030;-72
2023/09/13 05:57:08;;;;;;;27.57;7.47;;;20.20;99.90;;;;;;5014455;28;20092;-72
2023/09/13 05:59:39;;;;;;;27.33;6.37;;;20.30;99.90;;;;;;5021191;28;20711;-71
2023/09/13 06:02:06;;;;;;;19.25;5.50;;;20.30;99.90;;;;;;5020081;28;20331;-72
2023/09/13 06:04:32;;;;;;;13.18;5.20;;;20.30;99.90;;;;;;5015844;28;20026;-70
2023/09/13 06:06:57;;;;;;;10.60;4.47;;;20.30;99.90;;;;;;5014803;28;20045;-72
2023/09/13 06:09:23;;;;;;;9.33;4.20;;;20.40;99.90;;;;;;5017093;28;20705;-72
2023/09/13 06:11:49;;;;;;;12.57;4.30;;;20.40;99.90;;;;;;5016707;28;20504;-72
2023/09/13 06:14:16;;;;;;;10.70;4.57;;;20.50;99.90;;;;;;5019469;28;20038;-71
2023/09/13 06:16:42;;;;;;;10.80;4.45;;;20.40;99.90;;;;;;5015311;28;20030;-72
2023/09/13 06:19:07;;;;;;;7.17;3.90;;;20.50;99.90;;;;;;5017961;28;20037;-71
2023/09/13 06:21:33;;;;;;;13.43;4.10;;;20.70;99.90;;;;;;5018035;28;20730;-72
2023/09/13 06:23:59;;;;;;;8.47;4.80;;;20.60;99.90;;;;;;5016263;28;20061;-70
2023/09/13 06:26:24;;;;;;;6.78;4.55;;;20.60;99.90;;;;;;5014576;28;20492;-69
2023/09/13 06:28:50;;;;;;;12.17;5.10;;;20.50;99.90;;;;;;5017315;28;20524;-69
2023/09/13 06:31:16;;;;;;;9.17;5.70;;;20.50;99.90;;;;;;5019648;28;20545;-69
2023/09/13 06:33:42;;;;;;;20.85;4.68;;;20.50;99.90;;;;;;5020338;28;20545;-68
2023/09/13 06:36:08;;;;;;;10.10;4.90;;;20.50;99.90;;;;;;5016205;28;20057;-69
2023/09/13 06:38:34;;;;;;;12.48;4.90;;;20.50;99.90;;;;;;5014648;28;20073;-69
2023/09/13 06:40:59;;;;;;;5.40;4.00;;;20.50;99.90;;;;;;5019475;28;20033;-68
2023/09/13 06:43:25;;;;;;;10.90;5.10;;;20.50;99.90;;;;;;5017585;28;20036;-68
2023/09/13 06:45:51;;;;;;;11.43;4.57;;;20.50;99.90;;;;;;5021239;28;20029;-68
2023/09/13 06:48:18;;;;;;;12.27;5.07;;;20.50;99.90;;;;;;5015847;28;20453;-67
2023/09/13 06:50:44;;;;;;;6.10;4.53;;;20.40;99.90;;;;;;5018585;28;20160;-69
2023/09/13 06:53:09;;;;;;;9.97;4.77;;;20.40;99.90;;;;;;5019982;28;20120;-68
2023/09/13 06:55:35;;;;;;;8.50;4.90;;;20.40;99.90;;;;;;5017885;28;20361;-69
2023/09/13 06:58:07;;;;;;;8.48;4.80;;;20.50;99.90;;;;;;5016706;28;20120;-68
2023/09/13 07:00:33;;;;;;;13.82;3.92;;;20.50;99.90;;;;;;5015686;28;20418;-68
2023/09/13 07:02:59;;;;;;;14.02;5.65;;;20.50;99.90;;;;;;5016126;28;20041;-67
2023/09/13 07:05:25;;;;;;;10.52;4.20;;;20.50;99.90;;;;;;5020362;28;20128;-66
2023/09/13 07:07:50;;;;;;;6.20;3.87;;;20.50;99.90;;;;;;5019642;28;20309;-68
2023/09/13 07:10:16;;;;;;;7.17;4.70;;;20.50;99.90;;;;;;5017896;28;20026;-68
2023/09/13 07:12:41;;;;;;;8.67;4.80;;;20.60;99.90;;;;;;5017946;28;20402;-66
2023/09/13 07:15:07;;;;;;;7.63;4.60;;;20.50;99.90;;;;;;5017110;28;20025;-68
2023/09/13 07:17:33;;;;;;;15.02;5.55;;;20.50;99.90;;;;;;5011007;28;20041;-67
2023/09/13 07:20:00;;;;;;;9.48;4.85;;;20.50;99.90;;;;;;5011189;28;20026;-68
2023/09/13 07:22:26;;;;;;;7.05;4.93;;;20.50;99.90;;;;;;5024527;28;20066;-67
2023/09/13 07:24:52;;;;;;;6.82;4.20;;;20.40;99.90;;;;;;5010343;28;20140;-65
2023/09/13 07:27:18;;;;;;;;;;;20.50;99.90;;;;;;5016084;28;20056;-66
2023/09/13 07:29:44;;;;;;;10.52;4.38;;;20.40;99.90;;;;;;5013862;28;19906;-67
2023/09/13 07:32:09;;;;;;;4.50;3.80;;;20.40;99.90;;;;;;5014200;28;20292;-65
2023/09/13 07:34:35;;;;;;;4.57;4.00;;;20.50;99.90;;;;;;5016867;28;20474;-65
2023/09/13 07:37:01;;;;;;;8.97;4.33;;;20.40;99.90;;;;;;5013227;28;20033;-66
2023/09/13 07:39:27;;;;;;;8.38;4.97;;;20.50;99.90;;;;;;5015963;28;20055;-67
2023/09/13 07:41:52;;;;;;;8.52;4.53;;;20.50;99.90;;;;;;5018285;28;20044;-65
2023/09/13 07:44:18;;;;;;;9.77;4.63;;;20.40;99.90;;;;;;5017616;28;20390;-65
2023/09/13 07:46:44;;;;;;;8.97;4.50;;;20.40;99.90;;;;;;5015689;28;20075;-65
2023/09/13 07:49:09;;;;;;;5.70;4.47;;;20.40;99.90;;;;;;5018981;28;20125;-65
2023/09/13 07:51:35;;;;;;;11.13;5.03;;;20.40;99.90;;;;;;5013954;28;20061;-64
2023/09/13 07:54:07;;;;;;;10.00;5.03;;;20.40;99.90;;;;;;5015867;28;20489;-64
2023/09/13 07:56:34;;;;;;;10.50;4.50;;;20.40;99.90;;;;;;5017433;28;20029;-65
2023/09/13 07:59:00;;;;;;;7.97;4.45;;;20.40;99.90;;;;;;5013045;28;20356;-64
2023/09/13 08:01:25;;;;;;;6.78;4.15;;;20.40;99.90;;;;;;5011489;28;20592;-64
2023/09/13 08:03:51;;;;;;;6.55;4.78;;;20.50;99.90;;;;;;5011177;28;20121;-66
2023/09/13 08:06:17;;;;;;;8.55;4.88;;;20.50;99.90;;;;;;5013692;28;20096;-64
2023/09/13 08:08:43;;;;;;;7.32;5.38;;;20.50;99.90;;;;;;5012569;28;20026;-65
2023/09/13 08:11:08;;;;;;;7.23;5.20;;;20.50;99.90;;;;;;5016801;28;20493;-65
2023/09/13 08:13:35;;;;;;;6.90;4.50;;;20.60;99.90;;;;;;5014739;28;20115;-65
2023/09/13 08:16:01;;;;;;;5.93;4.88;;;20.60;99.90;;;;;;5010230;28;20038;-66
2023/09/13 08:18:27;;;;;;;16.83;4.97;;;20.50;99.90;;;;;;5017928;28;20124;-67
2023/09/13 08:20:52;;;;;;;11.35;4.82;;;20.60;99.90;;;;;;5014535;28;20044;-65
2023/09/13 08:23:18;;;;;;;11.00;5.33;;;20.60;99.90;;;;;;5010818;28;20068;-66
2023/09/13 08:25:44;;;;;;;8.93;4.67;;;20.60;99.90;;;;;;5016714;28;20045;-66
2023/09/13 08:28:10;;;;;;;6.15;4.70;;;20.70;99.90;;;;;;5015731;28;20085;-64
2023/09/13 08:30:35;;;;;;;11.30;5.63;;;20.70;99.90;;;;;;5012676;28;20627;-65
2023/09/13 08:33:01;;;;;;;8.40;4.50;;;20.70;99.90;;;;;;5013634;28;20417;-67
2023/09/13 08:35:27;;;;;;;7.87;4.77;;;20.70;99.90;;;;;;5016367;28;20040;-68
2023/09/13 08:37:52;;;;;;;10.67;4.50;;;20.60;99.90;;;;;;5012789;28;20461;-69
2023/09/13 08:40:18;;;;;;;6.20;4.80;;;20.70;99.90;;;;;;5021319;28;20065;-67
2023/09/13 08:42:44;;;;;;;12.97;5.00;;;20.60;99.90;;;;;;5017804;28;20060;-65
2023/09/13 08:45:11;;;;;;;8.02;4.70;;;20.60;99.90;;;;;;5009530;28;20800;-64
2023/09/13 08:47:42;;;;;;;8.05;5.07;;;20.80;99.90;;;;;;5012083;28;20425;-67
2023/09/13 08:50:08;;;;;;;16.15;5.20;;;21.00;99.90;;;;;;5018008;28;20120;-66
2023/09/13 08:52:35;;;;;;;;;;;21.00;99.90;;;;;;5017316;28;20034;-69
2023/09/13 08:55:03;;;;;;;6.00;4.10;;;21.10;99.90;;;;;;5011077;28;19925;-67
2023/09/13 08:57:31;;;;;;;9.40;4.95;;;21.00;99.90;;;;;;5016801;28;20433;-68
2023/09/13 08:59:56;;;;;;;8.63;4.50;;;21.10;99.90;;;;;;5012121;28;20090;-69
2023/09/13 09:02:24;;;;;;;9.33;4.90;;;21.20;99.90;;;;;;5018840;28;20471;-71
2023/09/13 09:04:51;;;;;;;9.88;5.00;;;21.20;99.90;;;;;;5004806;28;20525;-68
2023/09/13 09:07:19;;;;;;;8.88;5.18;;;21.20;99.90;;;;;;5018420;28;20053;-69
2023/09/13 09:09:47;;;;;;;8.75;4.95;;;21.20;99.90;;;;;;5016641;28;20026;-70
2023/09/13 09:12:16;;;;;;;10.30;5.70;;;21.20;99.90;;;;;;5018072;28;20034;-71
2023/09/13 09:14:44;;;;;;;6.82;5.07;;;21.20;99.90;;;;;;5015610;28;20088;-65
2023/09/13 09:17:13;;;;;;;10.85;5.78;;;21.20;99.90;;;;;;5012540;28;20065;-70
2023/09/13 09:19:39;;;;;;;8.32;4.78;;;21.40;99.90;;;;;;5010643;28;20033;-68
2023/09/13 09:22:07;;;;;;;;;;;21.40;99.90;;;;;;5013670;28;20065;-70
2023/09/13 09:24:33;;;;;;;6.68;4.97;;;21.40;99.90;;;;;;5013115;28;19971;-69
2023/09/13 09:26:59;;;;;;;8.40;5.65;;;21.50;99.90;;;;;;5014834;28;20107;-71
2023/09/13 09:29:45;;;;;;;10.40;6.05;;;21.50;99.90;;;;;;5014429;28;20064;-69
2023/09/13 09:32:12;;;;;;;12.18;6.55;;;21.50;99.90;;;;;;5015395;28;20033;-75
2023/09/13 09:34:42;;;;;;;10.93;5.80;;;21.60;99.90;;;;;;5014853;28;20025;-68
2023/09/13 09:37:08;;;;;;;9.18;5.53;;;21.70;99.90;;;;;;5018756;28;20042;-64
2023/09/13 09:39:40;;;;;;;10.05;5.15;;;21.70;99.90;;;;;;5018155;28;20108;-65
2023/09/13 09:42:06;;;;;;;11.48;5.57;;;21.70;99.90;;;;;;5014950;28;20046;-65
2023/09/13 09:44:32;;;;;;;10.07;5.55;;;21.80;99.90;;;;;;5015826;28;20103;-69
2023/09/13 09:46:58;;;;;;;9.93;6.10;;;21.80;99.90;;;;;;5017283;28;20436;-64
2023/09/13 09:49:24;;;;;;;9.60;6.15;;;21.90;99.90;;;;;;5020079;28;20281;-64
2023/09/13 09:51:50;;;;;;;10.60;6.35;;;22.00;99.90;;;;;;5016043;28;20045;-67
2023/09/13 09:54:16;;;;;;;12.05;6.50;;;22.00;99.90;;;;;;5017747;28;20461;-68
2023/09/13 09:56:43;;;;;;;9.90;6.57;;;21.80;99.90;;;;;;5017626;28;20072;-65
2023/09/13 09:59:08;;;;;;;9.50;5.97;;;21.80;99.90;;;;;;5016635;28;20281;-65
2023/09/13 10:01:37;;;;;;;6.80;5.87;;;21.80;99.90;;;;;;5014017;28;20595;-64
2023/09/13 10:04:11;;;;;;;7.07;5.22;;;21.90;99.90;;;;;;5017354;28;20037;-65
2023/09/13 10:06:36;;;;;;;7.65;5.32;;;21.90;99.90;;;;;;5014263;28;20493;-66
2023/09/13 10:09:04;;;;;;;8.77;5.20;;;21.80;99.90;;;;;;5013056;28;20034;-63
2023/09/13 10:11:30;;;;;;;9.05;5.60;;;21.90;99.90;;;;;;5016783;28;20045;-67
2023/09/13 10:13:55;;;;;;;11.70;5.35;;;21.80;99.90;;;;;;5021263;28;20030;-68
2023/09/13 10:16:26;;;;;;;7.57;5.20;;;21.90;99.90;;;;;;5016952;28;20038;-63
2023/09/13 10:18:53;;;;;;;8.00;5.30;;;22.00;99.90;;;;;;5016947;28;20513;-63
2023/09/13 10:21:26;;;;;;;6.35;5.32;;;22.10;99.90;;;;;;5016719;28;20036;-62
2023/09/13 10:24:00;;;;;;;10.57;4.75;;;22.10;99.90;;;;;;5018414;28;20049;-65
2023/09/13 10:26:29;;;;;;;6.20;4.90;;;22.10;99.90;;;;;;5025574;28;20506;-63
2023/09/13 10:29:07;;;;;;;8.90;5.60;;;22.10;99.90;;;;;;5018777;28;20481;-65
2023/09/13 10:31:39;;;;;;;6.25;5.18;;;22.00;99.90;;;;;;5017493;28;20440;-67
2023/09/13 10:34:09;;;;;;;6.63;5.30;;;21.80;99.90;;;;;;5023823;28;20099;-69
2023/09/13 10:36:39;;;;;;;7.40;5.15;;;21.90;99.90;;;;;;5018929;28;20087;-66
2023/09/13 10:39:21;;;;;;;9.77;5.05;;;21.90;99.90;;;;;;5016608;28;20034;-69
2023/09/13 10:42:01;;;;;;;11.90;5.13;;;21.90;99.90;;;;;;5017032;28;20409;-63
2023/09/13 10:44:26;;;;;;;10.57;6.00;;;22.00;99.90;;;;;;5024533;28;20033;-67
2023/09/13 10:46:54;;;;;;;11.13;5.43;;;22.10;99.90;;;;;;5020564;28;20026;-68
2023/09/13 10:49:20;;;;;;;8.82;5.25;;;22.30;99.90;;;;;;5016627;28;20051;-63
2023/09/13 10:51:47;;;;;;;8.73;5.57;;;22.20;99.90;;;;;;5014817;28;20593;-63
2023/09/13 10:54:15;;;;;;;7.95;4.72;;;22.10;99.90;;;;;;5015543;28;20072;-65
2023/09/13 10:56:41;;;;;;;7.03;5.50;;;22.20;99.90;;;;;;5019669;28;20035;-69
2023/09/13 10:59:09;;;;;;;11.55;6.15;;;22.10;99.90;;;;;;5016732;28;20688;-66
2023/09/13 11:01:36;;;;;;;8.13;5.20;;;22.00;99.90;;;;;;5013400;28;20034;-64
2023/09/13 11:04:04;;;;;;;8.75;5.43;;;22.20;99.90;;;;;;5020064;28;20489;-66
2023/09/13 11:06:30;;;;;;;12.55;6.18;;;22.20;99.90;;;;;;5016705;28;20042;-67
2023/09/13 11:09:09;;;;;;;;;;;22.30;99.90;;;;;;5015527;28;20037;-66
2023/09/13 11:11:35;;;;;;;8.35;5.65;;;22.20;99.90;;;;;;5020122;28;19913;-67
2023/09/13 11:14:09;;;;;;;10.88;6.18;;;22.30;99.90;;;;;;5014455;28;20403;-64
2023/09/13 11:16:35;;;;;;;7.70;5.85;;;22.20;99.90;;;;;;5013488;28;20041;-65
2023/09/13 11:19:03;;;;;;;8.00;5.68;;;22.30;99.90;;;;;;5016687;28;20026;-67
2023/09/13 11:21:45;;;;;;;8.48;5.70;;;22.40;99.90;;;;;;5017945;28;20037;-66
2023/09/13 11:24:11;;;;;;;11.20;6.32;;;22.50;99.90;;;;;;5013606;28;20080;-67
2023/09/13 11:26:48;;;;;;;7.63;5.53;;;22.70;99.90;;;;;;5017637;28;20132;-66
2023/09/13 11:29:25;;;;;;;8.68;5.45;;;22.80;99.90;;;;;;5016446;28;20033;-65
2023/09/13 11:32:04;;;;;;;10.90;5.78;;;23.00;99.90;;;;;;5017989;28;20033;-65
2023/09/13 11:34:34;;;;;;;7.60;5.57;;;23.10;99.70;;;;;;5022089;28;20029;-73
2023/09/13 11:37:01;;;;;;;6.55;5.78;;;23.30;99.90;;;;;;5016091;28;20029;-75
2023/09/13 11:39:27;;;;;;;7.22;6.15;;;23.30;99.70;;;;;;5014790;28;20026;-74
2023/09/13 11:41:55;;;;;;;13.57;5.85;;;23.10;99.20;;;;;;5021035;28;20029;-74
2023/09/13 11:44:25;;;;;;;9.43;6.72;;;23.10;99.90;;;;;;5019545;28;20614;-63
2023/09/13 11:46:51;;;;;;;9.98;5.97;;;23.00;99.60;;;;;;5015548;28;20470;-63
2023/09/13 11:49:23;;;;;;;7.90;5.68;;;22.90;99.90;;;;;;5018835;28;20119;-64
2023/09/13 11:51:53;;;;;;;6.80;4.90;;;22.70;98.90;;;;;;5018995;28;20022;-65
2023/09/13 11:54:21;;;;;;;8.57;6.22;;;22.80;99.60;;;;;;5011289;28;20465;-64
2023/09/13 11:56:49;;;;;;;9.07;5.60;;;22.80;99.20;;;;;;5015514;28;20511;-65
2023/09/13 11:59:15;;;;;;;10.23;5.85;;;22.80;98.70;;;;;;5016368;28;20030;-64
2023/09/13 12:01:45;;;;;;;11.95;5.90;;;22.90;99.30;;;;;;5016331;28;20520;-68
2023/09/13 12:04:11;;;;;;;9.52;5.30;;;23.00;98.80;;;;;;5016421;28;20044;-64
2023/09/13 12:06:47;;;;;;;;;;;22.90;98.60;;;;;;5015934;28;20509;-64
2023/09/13 12:09:15;;;;;;;10.65;5.35;;;22.90;98.40;;;;;;5015347;28;19913;-63
2023/09/13 12:11:41;;;;;;;9.85;5.63;;;22.90;99.90;;;;;;5015014;28;20041;-68
2023/09/13 12:14:11;;;;;;;7.90;5.45;;;22.90;99.50;;;;;;5014500;28;20103;-66
2023/09/13 12:16:37;;;;;;;8.65;5.55;;;23.00;99.50;;;;;;5015379;28;20075;-64
2023/09/13 12:19:04;;;;;;;5.70;5.10;;;23.10;98.90;;;;;;5014954;28;20112;-71
2023/09/13 12:21:29;;;;;;;9.10;4.88;;;23.00;98.90;;;;;;5017660;28;20044;-69
2023/09/13 12:23:55;;;;;;;8.87;5.90;;;22.90;99.70;;;;;;5014542;28;20037;-64
2023/09/13 12:26:21;;;;;;;6.80;5.15;;;22.80;99.90;;;;;;5014697;28;20042;-63
2023/09/13 12:28:48;;;;;;;7.32;5.88;;;22.80;99.90;;;;;;5021930;28;20528;-68
2023/09/13 12:31:15;;;;;;;9.20;6.40;;;22.70;99.90;;;;;;5016012;28;20014;-65
2023/09/13 12:33:42;;;;;;;12.07;7.32;;;22.60;99.90;;;;;;5019093;28;20069;-64
2023/09/13 12:36:09;;;;;;;9.60;6.93;;;22.40;99.90;;;;;;5021825;28;20025;-66
2023/09/13 12:38:43;;;;;;;9.52;6.75;;;22.40;99.90;;;;;;5012281;28;20459;-63
2023/09/13 12:41:10;;;;;;;12.05;6.90;;;22.40;99.90;;;;;;5018670;28;20032;-69
2023/09/13 12:43:36;;;;;;;9.55;6.85;;;22.50;99.90;;;;;;5021487;28;20044;-63
2023/09/13 12:46:03;;;;;;;7.60;6.45;;;22.50;99.90;;;;;;5016653;28;20029;-66